Terminal Aerodrome Forecast
Issued by NWS

Current Version | Previous Version | Text Only | Print | Product List | Glossary Off
Versions: 1 2 3 4 5 6 7 8 9 10 11 12 13 14 15 16 17 18 19 20 21 22 23 24 25 26 27

000
FTUS41 KPBZ 240600 CCB
TAFHLG
TAF COR
KHLG 240600Z 2405/2506 05006KT P6SM SCT007 BKN014 OVC070
      TEMPO 2406/2408 BKN007
     FM241300 04004KT P6SM SCT012 BKN030
     FM241600 04005KT P6SM SCT035
     FM242100 09004KT P6SM SKC=

USA.gov is the U.S. government's official web portal to all federal, state and local government web resources and services.